Terminal Aerodrome Forecast
Issued by NWS Chicago, IL

Home | Current Version | Previous Version | Graphics & Text | Print | Product List | Glossary On
Versions: 1 2 3 4 5 6 7 8 9 10 11 12 13 14 15 16 17 18 19 20 21 22 23 24 25 26 27
000
FTUS43 KLOT 250520
TAFRFD
TAF
KRFD 250520Z 2506/2606 13007KT 6SM BR SCT070 BKN250
     FM251300 16010KT P6SM SCT050 BKN250
      TEMPO 2513/2516 6SM -SHRA BKN050
     FM251900 20012KT P6SM VCSH BKN050
      TEMPO 2520/2523 3SM TSRA BKN025CB
     FM252300 28012KT P6SM SCT060 BKN250=

USA.gov is the U.S. government's official web portal to all federal, state and local government web resources and services.